Time,TemperatureF,DewpointF,PressureIn,WindDirection,WindDirectionDegrees,WindSpeedMPH,WindSpeedGustMPH,Humidity,HourlyPrecipIn,Conditions,Clouds,dailyrainin,SolarRadiationWatts/m^2,SoftwareType,DateUTC
2013-01-18 00:12:00,14.0,13.0,-100.00,North,354,1.0,4.0,97,0.00,,,0.00,0.000000,,2013-01-18 09:12:00,
2013-01-18 00:22:00,14.0,13.0,-100.00,North,354,1.0,4.0,97,0.00,,,0.00,0.000000,,2013-01-18 09:22:00,
2013-01-18 00:32:00,14.0,13.0,-100.00,North,354,1.0,4.0,97,0.00,,,0.00,0.000000,,2013-01-18 09:32:00,
2013-01-18 00:42:00,14.0,13.0,-100.00,North,354,1.0,4.0,97,0.00,,,0.00,0.000000,,2013-01-18 09:42:00,
2013-01-18 00:52:00,14.0,13.0,-100.00,North,354,1.0,4.0,97,0.00,,,0.00,0.000000,,2013-01-18 09:52:00,
2013-01-18 01:12:00,13.0,11.0,-100.00,NNW,343,1.0,4.0,92,0.00,,,0.00,0.000000,,2013-01-18 10:12:00,
2013-01-18 01:22:00,13.0,11.0,-100.00,NNW,343,1.0,4.0,92,0.00,,,0.00,0.000000,,2013-01-18 10:22:00,
2013-01-18 01:32:00,13.0,11.0,-100.00,NNW,343,1.0,4.0,92,0.00,,,0.00,0.000000,,2013-01-18 10:32:00,
2013-01-18 01:42:00,13.0,11.0,-100.00,NNW,343,1.0,4.0,92,0.00,,,0.00,0.000000,,2013-01-18 10:42:00,
2013-01-18 01:52:00,13.0,11.0,-100.00,NNW,343,1.0,4.0,92,0.00,,,0.00,0.000000,,2013-01-18 10:52:00,
2013-01-18 02:12:00,9.0,7.0,-100.00,NNW,342,1.0,2.0,93,0.00,,,0.00,0.000000,,2013-01-18 11:12:00,
2013-01-18 02:22:00,9.0,7.0,-100.00,NNW,342,1.0,2.0,93,0.00,,,0.00,0.000000,,2013-01-18 11:22:00,
2013-01-18 02:32:00,9.0,7.0,-100.00,NNW,342,1.0,2.0,93,0.00,,,0.00,0.000000,,2013-01-18 11:32:00,
2013-01-18 02:42:00,9.0,7.0,-100.00,NNW,342,1.0,2.0,93,0.00,,,0.00,0.000000,,2013-01-18 11:42:00,
2013-01-18 02:52:00,9.0,7.0,-100.00,NNW,342,1.0,2.0,93,0.00,,,0.00,0.000000,,2013-01-18 11:52:00,
2013-01-18 03:12:00,8.0,6.0,-100.00,North,352,1.0,3.0,93,0.00,,,0.00,0.000000,,2013-01-18 12:12:00,
2013-01-18 03:22:00,8.0,6.0,-100.00,North,352,1.0,3.0,93,0.00,,,0.00,0.000000,,2013-01-18 12:22:00,
2013-01-18 03:32:00,8.0,6.0,-100.00,North,352,1.0,3.0,93,0.00,,,0.00,0.000000,,2013-01-18 12:32:00,
2013-01-18 03:42:00,8.0,6.0,-100.00,North,352,1.0,3.0,93,0.00,,,0.00,0.000000,,2013-01-18 12:42:00,
2013-01-18 03:52:00,8.0,6.0,-100.00,North,352,1.0,3.0,93,0.00,,,0.00,0.000000,,2013-01-18 12:52:00,
2013-01-18 04:12:00,6.0,3.0,-100.00,NNW,347,1.0,4.0,89,0.00,,,0.00,0.000000,,2013-01-18 13:12:00,
2013-01-18 04:22:00,6.0,3.0,-100.00,NNW,347,1.0,4.0,89,0.00,,,0.00,0.000000,,2013-01-18 13:22:00,
2013-01-18 04:33:00,6.0,3.0,-100.00,NNW,347,1.0,4.0,89,0.00,,,0.00,0.000000,,2013-01-18 13:33:00,
2013-01-18 04:42:00,6.0,3.0,-100.00,NNW,347,1.0,4.0,89,0.00,,,0.00,0.000000,,2013-01-18 13:42:00,
2013-01-18 04:52:00,6.0,3.0,-100.00,NNW,347,1.0,4.0,89,0.00,,,0.00,0.000000,,2013-01-18 13:52:00,
2013-01-18 05:22:00,2.0,0.0,-100.00,WNW,282,0.0,3.0,90,0.00,,,0.00,0.000000,,2013-01-18 14:22:00,
2013-01-18 05:33:00,2.0,0.0,-100.00,WNW,282,0.0,3.0,90,0.00,,,0.00,0.000000,,2013-01-18 14:33:00,
2013-01-18 05:42:00,2.0,0.0,-100.00,WNW,282,0.0,3.0,90,0.00,,,0.00,0.000000,,2013-01-18 14:42:00,
2013-01-18 05:52:00,2.0,0.0,-100.00,WNW,282,0.0,3.0,90,0.00,,,0.00,0.000000,,2013-01-18 14:52:00,
2013-01-18 06:12:00,4.0,2.0,-100.00,NNW,339,1.0,4.0,92,0.00,,,0.00,0.000000,,2013-01-18 15:12:00,
2013-01-18 06:23:00,4.0,2.0,-100.00,NNW,339,1.0,4.0,92,0.00,,,0.00,0.000000,,2013-01-18 15:23:00,
2013-01-18 06:33:00,4.0,2.0,-100.00,NNW,339,1.0,4.0,92,0.00,,,0.00,0.000000,,2013-01-18 15:33:00,
2013-01-18 06:42:00,4.0,2.0,-100.00,NNW,339,1.0,4.0,92,0.00,,,0.00,0.000000,,2013-01-18 15:42:00,
2013-01-18 06:52:00,4.0,2.0,-100.00,NNW,339,1.0,4.0,92,0.00,,,0.00,0.000000,,2013-01-18 15:52:00,
2013-01-18 07:12:00,0.0,-3.0,-100.00,SSE,147,0.0,4.0,88,0.00,,,0.00,0.000000,,2013-01-18 16:12:00,
2013-01-18 07:23:00,0.0,-3.0,-100.00,SSE,147,0.0,4.0,88,0.00,,,0.00,0.000000,,2013-01-18 16:23:00,
2013-01-18 07:33:00,0.0,-3.0,-100.00,SSE,147,0.0,4.0,88,0.00,,,0.00,0.000000,,2013-01-18 16:33:00,
2013-01-18 07:42:00,0.0,-3.0,-100.00,SSE,147,0.0,4.0,88,0.00,,,0.00,0.000000,,2013-01-18 16:42:00,
2013-01-18 07:52:00,0.0,-3.0,-100.00,SSE,147,0.0,4.0,88,0.00,,,0.00,0.000000,,2013-01-18 16:52:00,
2013-01-18 08:13:00,2.0,0.0,-100.00,NNW,341,1.0,4.0,91,0.00,,,0.00,0.000000,,2013-01-18 17:13:00,
2013-01-18 08:23:00,2.0,0.0,-100.00,NNW,341,1.0,4.0,91,0.00,,,0.00,0.000000,,2013-01-18 17:23:00,
2013-01-18 08:33:00,2.0,0.0,-100.00,NNW,341,1.0,4.0,91,0.00,,,0.00,0.000000,,2013-01-18 17:33:00,
2013-01-18 08:42:00,2.0,0.0,-100.00,NNW,341,1.0,4.0,91,0.00,,,0.00,0.000000,,2013-01-18 17:42:00,
2013-01-18 08:52:00,2.0,0.0,-100.00,NNW,341,1.0,4.0,91,0.00,,,0.00,0.000000,,2013-01-18 17:52:00,
2013-01-18 09:12:00,5.0,3.0,-100.00,North,8,0.0,3.0,91,0.00,,,0.00,0.000000,,2013-01-18 18:12:00,
2013-01-18 09:23:00,5.0,3.0,-100.00,North,8,0.0,3.0,91,0.00,,,0.00,0.000000,,2013-01-18 18:23:00,
2013-01-18 09:33:00,5.0,3.0,-100.00,North,8,0.0,3.0,91,0.00,,,0.00,0.000000,,2013-01-18 18:33:00,
2013-01-18 09:43:00,5.0,3.0,-100.00,North,8,0.0,3.0,91,0.00,,,0.00,0.000000,,2013-01-18 18:43:00,
2013-01-18 09:52:00,5.0,3.0,-100.00,North,8,0.0,3.0,91,0.00,,,0.00,0.000000,,2013-01-18 18:52:00,
2013-01-18 10:12:00,5.0,2.0,-100.00,North,5,0.0,3.0,86,0.00,,,0.00,0.000000,,2013-01-18 19:12:00,
2013-01-18 10:22:00,5.0,2.0,-100.00,North,5,0.0,3.0,86,0.00,,,0.00,0.000000,,2013-01-18 19:22:00,
2013-01-18 10:33:00,5.0,2.0,-100.00,North,5,0.0,3.0,86,0.00,,,0.00,0.000000,,2013-01-18 19:33:00,
2013-01-18 10:42:00,5.0,2.0,-100.00,North,5,0.0,3.0,86,0.00,,,0.00,0.000000,,2013-01-18 19:42:00,
2013-01-18 10:52:00,5.0,2.0,-100.00,North,5,0.0,3.0,86,0.00,,,0.00,0.000000,,2013-01-18 19:52:00,
2013-01-18 11:12:00,8.0,6.0,-100.00,NNW,341,0.0,3.0,90,0.00,,,0.00,7.000000,,2013-01-18 20:12:00,
2013-01-18 11:22:00,8.0,6.0,-100.00,NNW,341,0.0,3.0,90,0.00,,,0.00,7.000000,,2013-01-18 20:22:00,
2013-01-18 11:33:00,8.0,6.0,-100.00,NNW,341,0.0,3.0,90,0.00,,,0.00,7.000000,,2013-01-18 20:33:00,
2013-01-18 11:42:00,8.0,6.0,-100.00,NNW,341,0.0,3.0,90,0.00,,,0.00,7.000000,,2013-01-18 20:42:00,
2013-01-18 11:52:00,8.0,6.0,-100.00,NNW,341,0.0,3.0,90,0.00,,,0.00,7.000000,,2013-01-18 20:52:00,
2013-01-18 12:22:00,10.0,7.0,-100.00,North,11,1.0,3.0,88,0.00,,,0.00,14.000000,,2013-01-18 21:22:00,
2013-01-18 12:33:00,10.0,7.0,-100.00,North,11,1.0,3.0,88,0.00,,,0.00,14.000000,,2013-01-18 21:33:00,
2013-01-18 12:42:00,10.0,7.0,-100.00,North,11,1.0,3.0,88,0.00,,,0.00,14.000000,,2013-01-18 21:42:00,
2013-01-18 12:52:00,10.0,7.0,-100.00,North,11,1.0,3.0,88,0.00,,,0.00,14.000000,,2013-01-18 21:52:00,
2013-01-18 13:12:00,13.0,10.0,-100.00,NNE,13,1.0,5.0,86,0.00,,,0.00,28.000000,,2013-01-18 22:12:00,
2013-01-18 13:22:00,13.0,10.0,-100.00,NNE,13,1.0,5.0,86,0.00,,,0.00,28.000000,,2013-01-18 22:22:00,
2013-01-18 13:32:00,13.0,10.0,-100.00,NNE,13,1.0,5.0,86,0.00,,,0.00,28.000000,,2013-01-18 22:32:00,
2013-01-18 13:42:00,13.0,10.0,-100.00,NNE,13,1.0,5.0,86,0.00,,,0.00,28.000000,,2013-01-18 22:42:00,
2013-01-18 13:52:00,13.0,10.0,-100.00,NNE,13,1.0,5.0,86,0.00,,,0.00,28.000000,,2013-01-18 22:52:00,
2013-01-18 14:12:00,14.0,10.0,-100.00,North,4,1.0,5.0,83,0.00,,,0.00,36.000000,,2013-01-18 23:12:00,
2013-01-18 14:22:00,14.0,10.0,-100.00,North,4,1.0,5.0,83,0.00,,,0.00,36.000000,,2013-01-18 23:22:00,
2013-01-18 14:32:00,14.0,10.0,-100.00,North,4,1.0,5.0,83,0.00,,,0.00,36.000000,,2013-01-18 23:32:00,
2013-01-18 14:42:00,14.0,10.0,-100.00,North,4,1.0,5.0,83,0.00,,,0.00,36.000000,,2013-01-18 23:42:00,
2013-01-18 14:52:00,14.0,10.0,-100.00,North,4,1.0,5.0,83,0.00,,,0.00,36.000000,,2013-01-18 23:52:00,
2013-01-18 15:12:00,14.0,10.0,-100.00,North,1,1.0,6.0,85,0.00,,,0.00,29.000000,,2013-01-19 00:12:00,
2013-01-18 15:22:00,14.0,10.0,-100.00,North,1,1.0,6.0,85,0.00,,,0.00,29.000000,,2013-01-19 00:22:00,
2013-01-18 15:32:00,14.0,10.0,-100.00,North,1,1.0,6.0,85,0.00,,,0.00,29.000000,,2013-01-19 00:32:00,
2013-01-18 15:42:00,14.0,10.0,-100.00,North,1,1.0,6.0,85,0.00,,,0.00,29.000000,,2013-01-19 00:42:00,
2013-01-18 15:52:00,14.0,10.0,-100.00,North,1,1.0,6.0,85,0.00,,,0.00,29.000000,,2013-01-19 00:52:00,
2013-01-18 16:22:00,13.0,11.0,-100.00,North,7,3.0,8.0,91,0.00,,,0.00,16.000000,,2013-01-19 01:22:00,
2013-01-18 16:32:00,13.0,11.0,-100.00,North,7,3.0,8.0,91,0.00,,,0.00,16.000000,,2013-01-19 01:32:00,
2013-01-18 16:42:00,13.0,11.0,-100.00,North,7,3.0,8.0,91,0.00,,,0.00,16.000000,,2013-01-19 01:42:00,
2013-01-18 16:52:00,13.0,11.0,-100.00,North,7,3.0,8.0,91,0.00,,,0.00,16.000000,,2013-01-19 01:52:00,
2013-01-18 17:12:00,13.0,11.0,-100.00,North,359,1.0,6.0,93,0.00,,,-99.99,2.000000,,2013-01-19 02:12:00,
2013-01-18 17:22:00,13.0,11.0,-100.00,North,359,1.0,6.0,93,0.00,,,-99.99,2.000000,,2013-01-19 02:22:00,
2013-01-18 17:33:00,13.0,11.0,-100.00,North,359,1.0,6.0,93,0.00,,,-99.99,2.000000,,2013-01-19 02:33:00,
2013-01-18 17:42:00,13.0,11.0,-100.00,North,359,1.0,6.0,93,0.00,,,-99.99,2.000000,,2013-01-19 02:42:00,
2013-01-18 17:52:00,13.0,11.0,-100.00,North,359,1.0,6.0,93,0.00,,,-99.99,2.000000,,2013-01-19 02:52:00,
2013-01-18 18:12:00,13.0,12.0,-100.00,NNW,340,2.0,4.0,94,0.00,,,0.00,0.000000,,2013-01-19 03:12:00,
2013-01-18 18:22:00,13.0,12.0,-100.00,NNW,340,2.0,4.0,94,0.00,,,0.00,0.000000,,2013-01-19 03:22:00,
2013-01-18 18:32:00,13.0,12.0,-100.00,NNW,340,2.0,4.0,94,0.00,,,0.00,0.000000,,2013-01-19 03:32:00,
2013-01-18 18:42:00,13.0,12.0,-100.00,NNW,340,2.0,4.0,94,0.00,,,0.00,0.000000,,2013-01-19 03:42:00,
2013-01-18 18:52:00,13.0,12.0,-100.00,NNW,340,2.0,4.0,94,0.00,,,0.00,0.000000,,2013-01-19 03:52:00,
2013-01-18 19:12:00,12.0,10.0,-100.00,North,357,1.0,4.0,93,0.00,,,0.00,0.000000,,2013-01-19 04:12:00,
2013-01-18 19:22:00,12.0,10.0,-100.00,North,357,1.0,4.0,93,0.00,,,0.00,0.000000,,2013-01-19 04:22:00,
2013-01-18 19:32:00,12.0,10.0,-100.00,North,357,1.0,4.0,93,0.00,,,0.00,0.000000,,2013-01-19 04:32:00,
2013-01-18 19:42:00,12.0,10.0,-100.00,North,357,1.0,4.0,93,0.00,,,0.00,0.000000,,2013-01-19 04:42:00,
2013-01-18 19:52:00,12.0,10.0,-100.00,North,357,1.0,4.0,93,0.00,,,0.00,0.000000,,2013-01-19 04:52:00,
2013-01-18 20:12:00,12.0,11.0,-100.00,North,9,1.0,6.0,94,0.00,,,0.00,0.000000,,2013-01-19 05:12:00,
2013-01-18 20:22:00,12.0,11.0,-100.00,North,9,1.0,6.0,94,0.00,,,0.00,0.000000,,2013-01-19 05:22:00,
2013-01-18 20:32:00,12.0,11.0,-100.00,North,9,1.0,6.0,94,0.00,,,0.00,0.000000,,2013-01-19 05:32:00,
2013-01-18 20:42:00,12.0,11.0,-100.00,North,9,1.0,6.0,94,0.00,,,0.00,0.000000,,2013-01-19 05:42:00,
2013-01-18 20:52:00,12.0,11.0,-100.00,North,9,1.0,6.0,94,0.00,,,0.00,0.000000,,2013-01-19 05:52:00,
2013-01-18 21:12:00,12.0,10.0,-100.00,NNW,347,2.0,7.0,93,0.00,,,0.00,0.000000,,2013-01-19 06:12:00,
2013-01-18 21:22:00,12.0,10.0,-100.00,NNW,347,2.0,7.0,93,0.00,,,0.00,0.000000,,2013-01-19 06:22:00,
2013-01-18 21:32:00,12.0,10.0,-100.00,NNW,347,2.0,7.0,93,0.00,,,0.00,0.000000,,2013-01-19 06:32:00,
2013-01-18 21:42:00,12.0,10.0,-100.00,NNW,347,2.0,7.0,93,0.00,,,0.00,0.000000,,2013-01-19 06:42:00,
2013-01-18 21:52:00,12.0,10.0,-100.00,NNW,347,2.0,7.0,93,0.00,,,0.00,0.000000,,2013-01-19 06:52:00,
2013-01-18 22:12:00,12.0,10.0,-100.00,NW,321,1.0,3.0,92,0.00,,,0.00,0.000000,,2013-01-19 07:12:00,
2013-01-18 22:22:00,12.0,10.0,-100.00,NW,321,1.0,3.0,92,0.00,,,0.00,0.000000,,2013-01-19 07:22:00,
2013-01-18 22:32:00,12.0,10.0,-100.00,NW,321,1.0,3.0,92,0.00,,,0.00,0.000000,,2013-01-19 07:32:00,
2013-01-18 22:42:00,12.0,10.0,-100.00,NW,321,1.0,3.0,92,0.00,,,0.00,0.000000,,2013-01-19 07:42:00,
2013-01-18 22:52:00,12.0,10.0,-100.00,NW,321,1.0,3.0,92,0.00,,,0.00,0.000000,,2013-01-19 07:52:00,
2013-01-18 23:12:00,12.0,10.0,-100.00,NNE,17,1.0,6.0,90,0.00,,,0.00,0.000000,,2013-01-19 08:12:00,
2013-01-18 23:22:00,12.0,10.0,-100.00,NNE,17,1.0,6.0,90,0.00,,,0.00,0.000000,,2013-01-19 08:22:00,
2013-01-18 23:32:00,12.0,10.0,-100.00,NNE,17,1.0,6.0,90,0.00,,,0.00,0.000000,,2013-01-19 08:32:00,
2013-01-18 23:42:00,12.0,10.0,-100.00,NNE,17,1.0,6.0,90,0.00,,,0.00,0.000000,,2013-01-19 08:42:00,
2013-01-18 23:52:00,12.0,10.0,-100.00,NNE,17,1.0,6.0,90,0.00,,,0.00,0.000000,,2013-01-19 08:52:00,